createdAt,value
2022-11-16T00:00:20.063Z,216.07
2022-11-16T00:01:23.296Z,157.48
2022-11-16T00:02:24.843Z,184.40
2022-11-16T00:03:26.573Z,244.70
2022-11-16T00:04:28.114Z,162.05
2022-11-16T00:05:29.722Z,267.17
2022-11-16T00:06:31.431Z,169.57
2022-11-16T00:07:33.065Z,176.43
2022-11-16T00:08:36.637Z,184.00
2022-11-16T00:09:38.300Z,176.98
2022-11-16T00:10:39.849Z,179.32
2022-11-16T00:11:41.720Z,255.50
2022-11-16T00:12:43.274Z,208.57
2022-11-16T00:13:44.824Z,161.63
2022-11-16T00:14:46.429Z,169.73
2022-11-16T00:15:57.229Z,204.90
2022-11-16T00:16:58.840Z,199.30
2022-11-16T00:18:00.418Z,220.18
2022-11-16T00:19:03.453Z,271.52
2022-11-16T00:20:05.472Z,216.73
2022-11-16T00:21:07.345Z,199.80
2022-11-16T00:22:08.907Z,180.05
2022-11-16T00:23:10.468Z,186.13
2022-11-16T00:24:13.142Z,236.45
2022-11-16T00:25:14.706Z,206.15
2022-11-16T00:26:16.242Z,255.77
2022-11-16T00:27:17.846Z,165.23
2022-11-16T00:28:19.496Z,232.15
2022-11-16T00:29:23.619Z,287.05
2022-11-16T00:30:25.160Z,194.05
2022-11-16T00:31:26.691Z,234.48
2022-11-16T00:32:28.247Z,200.25
2022-11-16T00:33:29.880Z,193.00
2022-11-16T00:34:31.473Z,230.55
2022-11-16T00:35:38.342Z,169.15
2022-11-16T00:36:39.934Z,198.73
2022-11-16T00:37:41.508Z,197.80
2022-11-16T00:38:43.148Z,197.93
2022-11-16T00:39:44.770Z,196.88
2022-11-16T00:40:46.323Z,176.65
2022-11-16T00:41:48.200Z,194.65
2022-11-16T00:42:49.840Z,210.73
2022-11-16T00:43:51.442Z,218.10
2022-11-16T00:44:53.038Z,197.10
2022-11-16T00:45:54.627Z,195.07
2022-11-16T00:46:56.190Z,227.85
2022-11-16T00:48:00.479Z,181.67
2022-11-16T00:49:02.465Z,188.50
2022-11-16T00:50:04.544Z,197.95
2022-11-16T00:51:06.311Z,249.90
2022-11-16T00:52:07.931Z,186.95
2022-11-16T00:53:10.554Z,220.05
2022-11-16T00:54:12.160Z,246.15
2022-11-16T00:55:13.718Z,173.23
2022-11-16T00:56:15.268Z,216.18
2022-11-16T00:57:16.813Z,287.33
2022-11-16T00:58:18.345Z,185.07
2022-11-16T00:59:19.982Z,195.35
2022-11-16T01:00:21.522Z,216.25
2022-11-16T01:01:23.173Z,226.65
2022-11-16T01:02:24.819Z,233.57
2022-11-16T01:03:26.425Z,298.02
2022-11-16T01:04:28.034Z,246.95
2022-11-16T01:05:29.687Z,262.30
2022-11-16T01:06:31.209Z,226.00
2022-11-16T01:07:32.774Z,219.23
2022-11-16T01:08:35.904Z,235.97
2022-11-16T01:09:37.711Z,188.13
2022-11-16T01:10:40.084Z,185.32
2022-11-16T01:12:00.302Z,176.75
2022-11-16T01:13:01.840Z,237.93
2022-11-16T01:14:05.080Z,214.52
2022-11-16T01:15:09.084Z,164.70
2022-11-16T01:16:14.490Z,204.70
2022-11-16T01:17:16.038Z,179.13
2022-11-16T01:18:17.586Z,217.02
2022-11-16T01:19:19.381Z,182.10
2022-11-16T01:20:26.951Z,244.70
2022-11-16T01:21:28.507Z,251.68
2022-11-16T01:22:30.032Z,200.73
2022-11-16T01:23:31.569Z,188.25
2022-11-16T01:24:33.267Z,178.60
2022-11-16T01:25:34.822Z,222.80
2022-11-16T01:26:36.382Z,266.30
2022-11-16T01:27:38.035Z,200.70
2022-11-16T01:28:39.567Z,214.60
2022-11-16T01:29:41.333Z,182.03
2022-11-16T01:30:48.444Z,199.27
2022-11-16T01:31:50.079Z,223.60
2022-11-16T01:32:51.642Z,247.48
2022-11-16T01:33:54.420Z,206.18
2022-11-16T01:34:56.177Z,193.57
2022-11-16T01:35:57.792Z,235.25
2022-11-16T01:36:59.329Z,244.65
2022-11-16T01:38:00.894Z,243.27
2022-11-16T01:39:03.102Z,250.43
2022-11-16T01:40:05.194Z,186.97
2022-11-16T01:41:06.786Z,234.70
2022-11-16T01:42:19.549Z,216.52
2022-11-16T01:43:24.040Z,198.88
2022-11-16T01:44:31.564Z,239.27
2022-11-16T01:45:38.721Z,220.00
2022-11-16T01:46:40.378Z,242.38
2022-11-16T01:47:41.913Z,224.55
2022-11-16T01:48:43.521Z,281.95
2022-11-16T01:49:51.072Z,191.02
2022-11-16T01:50:52.640Z,203.17
2022-11-16T01:51:59.534Z,208.48
2022-11-16T01:53:02.450Z,287.73
2022-11-16T01:54:07.242Z,242.75
2022-11-16T01:55:08.925Z,227.18
2022-11-16T01:56:10.458Z,243.30
2022-11-16T01:57:14.402Z,236.55
2022-11-16T01:58:18.819Z,245.07
2022-11-16T01:59:20.436Z,215.07
2022-11-16T02:00:22.137Z,200.30
2022-11-16T02:01:24.117Z,177.33
2022-11-16T02:02:25.729Z,213.25
2022-11-16T02:03:27.261Z,209.77
2022-11-16T02:04:28.978Z,191.57
2022-11-16T02:05:34.464Z,228.00
2022-11-16T02:07:02.143Z,221.82
2022-11-16T02:08:38.233Z,205.65
2022-11-16T02:09:55.290Z,220.18
2022-11-16T02:11:15.490Z,200.80
2022-11-16T02:12:43.516Z,186.05
2022-11-16T02:14:04.357Z,195.70
2022-11-16T02:15:11.106Z,159.82
2022-11-16T02:16:35.761Z,188.70
2022-11-16T02:17:58.914Z,173.75
2022-11-16T02:19:32.765Z,183.05
2022-11-16T02:21:02.220Z,177.48
2022-11-16T02:22:32.590Z,203.77
2022-11-16T02:23:46.798Z,161.70
2022-11-16T02:25:03.527Z,192.73
2022-11-16T02:26:16.958Z,159.27
2022-11-16T02:27:37.057Z,159.13
2022-11-16T02:28:58.392Z,157.95
2022-11-16T02:29:59.925Z,153.00
2022-11-16T02:31:02.538Z,175.80
2022-11-16T02:32:16.786Z,205.45
2022-11-16T02:33:20.410Z,185.73
2022-11-16T02:34:22.075Z,245.65
2022-11-16T02:35:29.354Z,229.48
2022-11-16T02:36:30.908Z,194.10
2022-11-16T02:37:37.989Z,201.95
2022-11-16T02:38:40.187Z,177.00
2022-11-16T02:39:41.749Z,181.52
2022-11-16T02:40:45.669Z,199.45
2022-11-16T02:41:47.956Z,224.20
2022-11-16T02:42:59.405Z,222.13
2022-11-16T02:44:03.132Z,214.18
2022-11-16T02:45:06.409Z,187.43
2022-11-16T02:46:10.036Z,202.07
2022-11-16T02:47:14.959Z,209.25
2022-11-16T02:48:24.732Z,217.93
2022-11-16T02:49:26.547Z,245.00
2022-11-16T02:50:28.129Z,198.70
2022-11-16T02:51:29.729Z,246.00
2022-11-16T02:52:31.309Z,238.85
2022-11-16T02:53:41.490Z,215.60
2022-11-16T02:54:43.155Z,253.27
2022-11-16T02:55:44.703Z,303.17
2022-11-16T02:57:04.244Z,231.90
2022-11-16T02:58:06.149Z,211.38
2022-11-16T02:59:08.150Z,194.60
2022-11-16T03:00:12.507Z,259.50
2022-11-16T03:01:16.499Z,272.83
2022-11-16T03:02:33.014Z,219.65
2022-11-16T03:03:43.206Z,214.60
2022-11-16T03:04:49.309Z,177.35
2022-11-16T03:05:53.224Z,193.20
2022-11-16T03:06:54.888Z,248.38
2022-11-16T03:08:02.041Z,246.77
2022-11-16T03:09:09.105Z,186.55
2022-11-16T03:10:10.746Z,227.15
2022-11-16T03:11:31.093Z,212.90
2022-11-16T03:12:35.037Z,175.40
2022-11-16T03:13:36.712Z,240.25
2022-11-16T03:14:42.330Z,269.17
2022-11-16T03:15:43.918Z,198.68
2022-11-16T03:16:48.089Z,301.80
2022-11-16T03:17:49.992Z,201.15
2022-11-16T03:18:51.986Z,196.70
2022-11-16T03:20:28.422Z,303.13
2022-11-16T03:21:45.607Z,245.32
2022-11-16T03:22:55.142Z,178.03
2022-11-16T03:23:56.756Z,192.02
2022-11-16T03:24:58.521Z,175.40
2022-11-16T03:26:00.056Z,190.45
2022-11-16T03:27:22.722Z,190.73
2022-11-16T03:28:48.280Z,227.43
2022-11-16T03:29:52.812Z,229.60
2022-11-16T03:31:04.286Z,188.68
2022-11-16T03:32:14.479Z,206.23
2022-11-16T03:33:49.014Z,233.32
2022-11-16T03:34:56.645Z,220.30
2022-11-16T03:36:04.897Z,181.63
2022-11-16T03:37:06.506Z,176.98
2022-11-16T03:38:08.077Z,173.38
2022-11-16T03:39:12.703Z,209.00
2022-11-16T03:40:14.294Z,253.75
2022-11-16T03:41:15.958Z,193.25
2022-11-16T03:42:17.561Z,179.98
2022-11-16T03:43:20.417Z,247.40
2022-11-16T03:44:22.175Z,215.50
2022-11-16T03:45:23.706Z,258.23
2022-11-16T03:46:25.310Z,205.07
2022-11-16T03:47:26.863Z,273.85
2022-11-16T03:48:38.927Z,242.68
2022-11-16T03:49:44.747Z,206.30
2022-11-16T03:50:46.367Z,210.95
2022-11-16T03:51:48.549Z,250.65
2022-11-16T03:52:50.137Z,199.35
2022-11-16T03:53:51.774Z,224.20
2022-11-16T03:54:53.780Z,174.30
2022-11-16T03:55:55.436Z,198.63
2022-11-16T03:56:57.059Z,201.20
2022-11-16T03:57:58.698Z,213.95
2022-11-16T03:59:00.283Z,224.27
2022-11-16T04:00:01.849Z,248.95
2022-11-16T04:01:03.713Z,277.48
2022-11-16T04:02:05.377Z,227.77
2022-11-16T04:03:07.025Z,222.80
2022-11-16T04:04:28.520Z,191.70
2022-11-16T04:05:48.411Z,207.45
2022-11-16T04:07:08.338Z,226.23
2022-11-16T04:08:37.481Z,237.30
2022-11-16T04:09:57.413Z,205.20
2022-11-16T04:11:17.789Z,189.05
2022-11-16T04:12:37.634Z,187.13
2022-11-16T04:13:57.839Z,206.27
2022-11-16T04:15:17.683Z,235.88
2022-11-16T04:16:38.151Z,198.65
2022-11-16T04:17:58.251Z,210.95
2022-11-16T04:19:18.752Z,203.18
2022-11-16T04:20:39.040Z,233.00
2022-11-16T04:22:01.261Z,248.88
2022-11-16T04:23:26.813Z,202.50
2022-11-16T04:24:29.981Z,229.23
2022-11-16T04:25:32.303Z,212.50
2022-11-16T04:26:52.308Z,233.45
2022-11-16T04:28:12.922Z,199.48
2022-11-16T04:29:14.486Z,191.13
2022-11-16T04:30:16.322Z,225.48
2022-11-16T04:31:36.335Z,199.95
2022-11-16T04:32:56.533Z,212.63
2022-11-16T04:34:16.400Z,176.85
2022-11-16T04:35:36.688Z,157.13
2022-11-16T04:36:56.635Z,154.35
2022-11-16T04:37:58.404Z,222.20
2022-11-16T04:38:59.995Z,177.90
2022-11-16T04:40:01.662Z,192.35
2022-11-16T04:41:03.221Z,259.27
2022-11-16T04:42:14.368Z,236.10
2022-11-16T04:43:16.040Z,212.25
2022-11-16T04:44:17.755Z,207.47
2022-11-16T04:45:38.565Z,238.95
2022-11-16T04:46:58.358Z,205.57
2022-11-16T04:47:59.928Z,200.88
2022-11-16T04:49:01.456Z,207.75
2022-11-16T04:50:03.401Z,207.57
2022-11-16T04:51:05.021Z,223.23
2022-11-16T04:52:06.628Z,239.38
2022-11-16T04:53:08.389Z,246.38
2022-11-16T04:54:09.958Z,170.85
2022-11-16T04:55:12.203Z,182.17
2022-11-16T04:56:13.828Z,216.23
2022-11-16T04:57:15.389Z,205.43
2022-11-16T04:58:16.958Z,171.98
2022-11-16T04:59:18.607Z,227.05
2022-11-16T05:00:20.187Z,194.45
2022-11-16T05:01:41.773Z,279.73
2022-11-16T05:02:43.360Z,200.00
2022-11-16T05:03:44.910Z,200.35
2022-11-16T05:04:46.562Z,167.05
2022-11-16T05:05:49.887Z,198.30
2022-11-16T05:06:51.450Z,147.52
2022-11-16T05:07:53.096Z,192.30
2022-11-16T05:08:54.675Z,218.00
2022-11-16T05:09:56.282Z,171.40
2022-11-16T05:10:57.884Z,198.20
2022-11-16T05:11:59.427Z,177.57
2022-11-16T05:13:00.962Z,232.30
2022-11-16T05:14:02.637Z,219.38
2022-11-16T05:15:05.003Z,155.13
2022-11-16T05:16:06.848Z,171.40
2022-11-16T05:17:08.506Z,211.95
2022-11-16T05:18:10.043Z,159.90
2022-11-16T05:19:30.030Z,254.25
2022-11-16T05:20:50.240Z,157.10
2022-11-16T05:21:51.784Z,181.63
2022-11-16T05:22:57.471Z,175.27
2022-11-16T05:24:17.535Z,183.52
2022-11-16T05:25:19.236Z,173.18
2022-11-16T05:26:20.786Z,251.32
2022-11-16T05:27:23.028Z,175.77
2022-11-16T05:28:24.648Z,147.68
2022-11-16T05:29:26.185Z,175.38
2022-11-16T05:30:29.690Z,210.43
2022-11-16T05:31:35.062Z,155.68
2022-11-16T05:32:39.244Z,158.23
2022-11-16T05:33:40.836Z,174.07
2022-11-16T05:34:42.473Z,148.10
2022-11-16T05:35:44.185Z,229.23
2022-11-16T05:36:45.725Z,209.95
2022-11-16T05:37:47.373Z,205.10
2022-11-16T05:38:52.642Z,153.88
2022-11-16T05:39:57.106Z,185.90
2022-11-16T05:40:58.718Z,192.88
2022-11-16T05:42:00.351Z,179.45
2022-11-16T05:43:01.981Z,191.90
2022-11-16T05:44:03.660Z,180.70
2022-11-16T05:45:05.657Z,166.93
2022-11-16T05:46:07.244Z,173.55
2022-11-16T05:47:08.800Z,173.27
2022-11-16T05:48:10.383Z,191.00
2022-11-16T05:49:12.361Z,162.57
2022-11-16T05:50:13.922Z,188.48
2022-11-16T05:51:15.567Z,170.60
2022-11-16T05:52:17.112Z,172.10
2022-11-16T05:53:18.663Z,165.95
2022-11-16T05:54:21.572Z,199.52
2022-11-16T05:55:23.128Z,172.13
2022-11-16T05:56:24.847Z,154.95
2022-11-16T05:57:26.456Z,185.27
2022-11-16T05:58:28.060Z,212.97
2022-11-16T05:59:30.159Z,196.85
2022-11-16T06:00:31.723Z,172.07
2022-11-16T06:01:33.318Z,180.23
2022-11-16T06:02:34.935Z,241.80
2022-11-16T06:03:36.643Z,218.55
2022-11-16T06:04:38.243Z,237.18
2022-11-16T06:05:40.834Z,235.63
2022-11-16T06:06:42.540Z,186.32
2022-11-16T06:07:44.153Z,183.30
2022-11-16T06:08:45.755Z,190.87
2022-11-16T06:09:47.383Z,155.43
2022-11-16T06:10:48.936Z,181.85
2022-11-16T06:11:50.469Z,165.27
2022-11-16T06:12:52.069Z,144.00
2022-11-16T06:13:53.626Z,169.02
2022-11-16T06:14:55.225Z,140.55
2022-11-16T06:15:56.773Z,184.27
2022-11-16T06:16:58.342Z,180.88
2022-11-16T06:17:59.898Z,151.13
2022-11-16T06:19:01.510Z,161.03
2022-11-16T06:20:03.206Z,230.68
2022-11-16T06:21:05.004Z,172.50
2022-11-16T06:22:06.820Z,166.13
2022-11-16T06:23:08.395Z,157.50
2022-11-16T06:24:09.998Z,214.68
2022-11-16T06:25:11.595Z,199.40
2022-11-16T06:26:13.152Z,181.80
2022-11-16T06:27:15.994Z,231.05
2022-11-16T06:28:17.559Z,237.57
2022-11-16T06:29:19.181Z,213.37
2022-11-16T06:30:20.705Z,158.20
2022-11-16T06:31:22.433Z,167.95
2022-11-16T06:32:23.979Z,194.25
2022-11-16T06:33:28.531Z,176.57
2022-11-16T06:34:32.475Z,229.48
2022-11-16T06:35:34.093Z,212.05
2022-11-16T06:36:36.008Z,175.52
2022-11-16T06:37:37.594Z,146.93
2022-11-16T06:38:39.177Z,178.27
2022-11-16T06:39:40.720Z,177.90
2022-11-16T06:40:42.260Z,159.50
2022-11-16T06:41:43.902Z,185.05
2022-11-16T06:42:45.527Z,184.02
2022-11-16T06:43:47.078Z,191.02
2022-11-16T06:44:48.690Z,153.32
2022-11-16T06:45:57.768Z,166.75
2022-11-16T06:46:59.336Z,145.18
2022-11-16T06:48:00.875Z,162.68
2022-11-16T06:49:02.430Z,152.45
2022-11-16T06:50:04.253Z,165.33
2022-11-16T06:51:06.055Z,142.55
2022-11-16T06:52:07.605Z,148.93
2022-11-16T06:53:09.181Z,156.65
2022-11-16T06:54:10.726Z,160.18
2022-11-16T06:55:12.569Z,189.48
2022-11-16T06:56:14.370Z,136.57
2022-11-16T06:57:15.952Z,238.55
2022-11-16T06:58:17.714Z,161.13
2022-11-16T06:59:19.300Z,156.60
2022-11-16T07:00:20.849Z,159.53
2022-11-16T07:01:22.457Z,145.85
2022-11-16T07:02:24.188Z,122.65
2022-11-16T07:03:25.766Z,147.27
2022-11-16T07:04:27.396Z,136.27
2022-11-16T07:05:29.245Z,124.55
2022-11-16T07:06:30.882Z,136.70
2022-11-16T07:07:32.881Z,152.85
2022-11-16T07:08:34.817Z,125.95
2022-11-16T07:09:36.556Z,181.32
2022-11-16T07:10:38.406Z,167.53
2022-11-16T07:11:40.041Z,145.70
2022-11-16T07:12:41.619Z,166.40
2022-11-16T07:13:43.179Z,182.13
2022-11-16T07:14:45.549Z,122.90
2022-11-16T07:15:47.115Z,158.23
2022-11-16T07:16:48.771Z,125.10
2022-11-16T07:17:50.358Z,159.55
2022-11-16T07:18:51.928Z,149.48
2022-11-16T07:19:53.515Z,172.82
2022-11-16T07:20:55.076Z,146.43
2022-11-16T07:21:56.710Z,176.18
2022-11-16T07:23:02.103Z,132.10
2022-11-16T07:24:03.707Z,127.40
2022-11-16T07:25:05.698Z,147.32
2022-11-16T07:26:07.848Z,134.95
2022-11-16T07:27:09.485Z,153.93
2022-11-16T07:28:11.044Z,141.73
2022-11-16T07:29:13.910Z,141.10
2022-11-16T07:30:15.536Z,137.90
2022-11-16T07:31:17.178Z,137.07
2022-11-16T07:32:18.754Z,125.65
2022-11-16T07:33:20.295Z,115.38
2022-11-16T07:34:21.908Z,136.65
2022-11-16T07:35:23.719Z,128.02
2022-11-16T07:36:25.313Z,132.02
2022-11-16T07:37:26.873Z,156.07
2022-11-16T07:38:28.627Z,119.90
2022-11-16T07:39:30.174Z,114.80
2022-11-16T07:40:31.776Z,137.00
2022-11-16T07:41:33.323Z,125.80
2022-11-16T07:42:34.982Z,111.57
2022-11-16T07:43:36.581Z,116.28
2022-11-16T07:44:38.868Z,113.90
2022-11-16T07:45:40.553Z,112.32
2022-11-16T07:46:46.990Z,106.15
2022-11-16T07:47:52.425Z,125.80
2022-11-16T07:48:54.098Z,109.72
2022-11-16T07:49:55.634Z,132.40
2022-11-16T07:51:01.503Z,119.63
2022-11-16T07:52:03.606Z,110.63
2022-11-16T07:53:05.172Z,111.82
2022-11-16T07:54:06.756Z,115.40
2022-11-16T07:55:08.397Z,102.78
2022-11-16T07:56:10.391Z,103.78
2022-11-16T07:57:11.960Z,108.45
2022-11-16T07:58:13.566Z,127.85
2022-11-16T07:59:15.249Z,105.57
2022-11-16T08:00:17.268Z,97.47
2022-11-16T08:01:19.038Z,101.18
2022-11-16T08:02:20.632Z,101.23
2022-11-16T08:03:24.823Z,109.25
2022-11-16T08:04:26.612Z,107.90
2022-11-16T08:05:28.240Z,92.80
2022-11-16T08:06:30.778Z,106.75
2022-11-16T08:07:33.464Z,110.60
2022-11-16T08:08:35.294Z,101.85
2022-11-16T08:09:38.133Z,94.68
2022-11-16T08:10:39.738Z,98.85
2022-11-16T08:11:41.644Z,100.22
2022-11-16T08:12:43.243Z,100.47
2022-11-16T08:13:44.866Z,104.60
2022-11-16T08:14:46.472Z,109.13
2022-11-16T08:15:48.076Z,112.40
2022-11-16T08:16:49.611Z,103.20
2022-11-16T08:17:51.377Z,106.78
2022-11-16T08:18:52.936Z,106.60
2022-11-16T08:19:54.691Z,114.53
2022-11-16T08:20:58.718Z,110.55
2022-11-16T08:22:00.378Z,113.55
2022-11-16T08:23:01.995Z,110.77
2022-11-16T08:24:03.760Z,121.78
2022-11-16T08:25:05.909Z,119.13
2022-11-16T08:26:14.325Z,118.40
2022-11-16T08:27:17.479Z,117.00
2022-11-16T08:28:19.052Z,107.80
2022-11-16T08:29:20.971Z,125.15
2022-11-16T08:30:22.570Z,121.25
2022-11-16T08:31:26.293Z,112.32
2022-11-16T08:32:29.787Z,123.75
2022-11-16T08:33:31.357Z,113.63
2022-11-16T08:34:33.795Z,123.22
2022-11-16T08:35:35.930Z,107.10
2022-11-16T08:36:37.487Z,113.97
2022-11-16T08:37:39.055Z,109.60
2022-11-16T08:38:40.705Z,112.80
2022-11-16T08:39:42.302Z,110.57
2022-11-16T08:40:43.938Z,124.78
2022-11-16T08:41:45.699Z,114.20
2022-11-16T08:42:47.320Z,118.43
2022-11-16T08:43:50.879Z,119.40
2022-11-16T08:44:52.565Z,106.55
2022-11-16T08:45:54.219Z,107.28
2022-11-16T08:46:55.795Z,101.65
2022-11-16T08:48:03.585Z,106.38
2022-11-16T08:49:05.693Z,103.55
2022-11-16T08:50:07.561Z,98.03
2022-11-16T08:51:17.417Z,100.38
2022-11-16T08:52:20.313Z,109.70
2022-11-16T08:53:21.867Z,116.05
2022-11-16T08:54:23.418Z,100.20
2022-11-16T08:55:25.496Z,113.00
2022-11-16T08:56:27.511Z,111.30
2022-11-16T08:57:29.784Z,101.18
2022-11-16T08:58:31.665Z,100.85
2022-11-16T08:59:33.491Z,109.47
2022-11-16T09:00:35.106Z,113.57
2022-11-16T09:01:36.750Z,121.15
2022-11-16T09:02:38.519Z,109.07
2022-11-16T09:03:40.314Z,109.78
2022-11-16T09:04:42.423Z,108.30
2022-11-16T09:05:44.034Z,104.70
2022-11-16T09:06:45.784Z,104.13
2022-11-16T09:07:47.363Z,104.15
2022-11-16T09:08:48.949Z,93.40
2022-11-16T09:09:50.679Z,108.70
2022-11-16T09:10:52.244Z,117.97
2022-11-16T09:11:55.310Z,99.90
2022-11-16T09:12:56.960Z,96.35
2022-11-16T09:13:59.122Z,106.47
2022-11-16T09:15:00.689Z,112.60
2022-11-16T09:16:02.299Z,109.70
2022-11-16T09:17:03.827Z,105.72
2022-11-16T09:18:05.469Z,104.30
2022-11-16T09:19:07.024Z,110.55
2022-11-16T09:20:09.042Z,101.10
2022-11-16T09:21:10.602Z,105.25
2022-11-16T09:22:12.180Z,102.32
2022-11-16T09:23:13.764Z,102.88
2022-11-16T09:24:15.344Z,99.22
2022-11-16T09:25:19.206Z,99.73
2022-11-16T09:26:23.284Z,99.97
2022-11-16T09:27:24.976Z,100.72
2022-11-16T09:28:27.354Z,100.07
2022-11-16T09:29:28.966Z,106.38
2022-11-16T09:30:31.523Z,102.47
2022-11-16T09:31:34.890Z,128.68
2022-11-16T09:32:36.536Z,115.20
2022-11-16T09:33:38.214Z,114.38
2022-11-16T09:34:40.122Z,105.70
2022-11-16T09:35:41.723Z,101.90
2022-11-16T09:36:43.267Z,101.32
2022-11-16T09:37:44.891Z,108.22
2022-11-16T09:39:19.061Z,117.55
2022-11-16T09:40:08.970Z,102.78
2022-11-16T09:41:15.370Z,97.80
2022-11-16T09:42:25.707Z,110.65
2022-11-16T09:43:51.804Z,108.07
2022-11-16T09:45:08.472Z,108.38
2022-11-16T09:46:29.720Z,105.97
2022-11-16T09:47:38.949Z,105.70
2022-11-16T09:48:40.526Z,114.78
2022-11-16T09:49:43.963Z,105.22
2022-11-16T09:50:58.674Z,107.65
2022-11-16T09:52:02.149Z,108.90
2022-11-16T09:53:16.708Z,109.95
2022-11-16T09:54:34.193Z,110.70
2022-11-16T09:55:43.576Z,102.70
2022-11-16T09:56:45.118Z,108.53
2022-11-16T09:57:46.728Z,119.10
2022-11-16T09:59:15.183Z,111.97
2022-11-16T10:00:22.879Z,109.78
2022-11-16T10:01:24.629Z,106.60
2022-11-16T10:02:29.144Z,108.20
2022-11-16T10:03:32.250Z,108.72
2022-11-16T10:04:39.172Z,105.47
2022-11-16T10:05:46.796Z,105.40
2022-11-16T10:07:00.088Z,107.35
2022-11-16T10:08:15.660Z,99.63
2022-11-16T10:09:17.226Z,102.03
2022-11-16T10:10:27.843Z,99.77
2022-11-16T10:11:45.302Z,116.97
2022-11-16T10:12:53.041Z,113.28
2022-11-16T10:14:12.712Z,97.88
2022-11-16T10:15:39.713Z,103.85
2022-11-16T10:17:11.653Z,104.50
2022-11-16T10:18:13.332Z,101.90
2022-11-16T10:19:39.749Z,100.93
2022-11-16T10:20:53.196Z,88.68
2022-11-16T10:22:06.897Z,100.70
2022-11-16T10:23:33.742Z,92.47
2022-11-16T10:24:44.601Z,97.95
2022-11-16T10:25:47.139Z,93.68
2022-11-16T10:26:51.096Z,95.30
2022-11-16T10:27:55.207Z,101.60
2022-11-16T10:29:22.143Z,90.38
2022-11-16T10:30:23.777Z,100.95
2022-11-16T10:31:32.557Z,98.85
2022-11-16T10:32:47.793Z,97.45
2022-11-16T10:33:49.881Z,97.90
2022-11-16T10:35:13.111Z,99.97
2022-11-16T10:36:15.342Z,104.80
2022-11-16T10:37:16.943Z,95.43
2022-11-16T10:38:21.926Z,90.65
2022-11-16T10:39:24.158Z,85.32
2022-11-16T10:40:29.148Z,93.35
2022-11-16T10:41:31.955Z,90.63
2022-11-16T10:42:36.629Z,94.28
2022-11-16T10:43:38.173Z,93.18
2022-11-16T10:44:45.611Z,91.28
2022-11-16T10:45:55.959Z,91.07
2022-11-16T10:47:03.433Z,92.95
2022-11-16T10:48:19.947Z,93.30
2022-11-16T10:49:25.426Z,88.78
2022-11-16T10:50:48.217Z,100.75
2022-11-16T10:51:49.839Z,95.25
2022-11-16T10:52:51.382Z,89.15
2022-11-16T10:53:54.260Z,89.20
2022-11-16T10:54:55.819Z,88.35
2022-11-16T10:56:31.819Z,90.28
2022-11-16T10:58:01.890Z,80.07
2022-11-16T10:59:05.425Z,84.60
2022-11-16T11:00:12.680Z,85.07
2022-11-16T11:01:38.647Z,87.40
2022-11-16T11:02:41.506Z,82.88
2022-11-16T11:03:43.055Z,84.13
2022-11-16T11:04:44.599Z,88.10
2022-11-16T11:05:48.503Z,86.63
2022-11-16T11:06:54.906Z,86.85
2022-11-16T11:08:02.183Z,85.18
2022-11-16T11:09:28.715Z,79.73
2022-11-16T11:10:40.759Z,84.28
2022-11-16T11:12:01.038Z,85.22
2022-11-16T11:13:29.034Z,88.65
2022-11-16T11:14:32.575Z,87.25
2022-11-16T11:15:34.180Z,84.82
2022-11-16T11:16:35.876Z,86.75
2022-11-16T11:17:41.730Z,84.97
2022-11-16T11:18:43.404Z,86.32
2022-11-16T11:19:44.942Z,89.45
2022-11-16T11:20:51.486Z,84.43
2022-11-16T11:21:57.397Z,84.18
2022-11-16T11:22:59.985Z,88.50
2022-11-16T11:24:16.358Z,90.80
2022-11-16T11:25:24.026Z,89.97
2022-11-16T11:26:40.570Z,103.68
2022-11-16T11:27:42.171Z,96.40
2022-11-16T11:28:47.032Z,98.97
2022-11-16T11:29:51.536Z,96.25
2022-11-16T11:31:12.188Z,86.43
2022-11-16T11:32:19.445Z,87.53
2022-11-16T11:33:25.763Z,86.47
2022-11-16T11:34:28.601Z,93.18
2022-11-16T11:35:31.513Z,87.00
2022-11-16T11:36:35.842Z,89.50
2022-11-16T11:37:37.553Z,88.97
2022-11-16T11:39:04.767Z,82.15
2022-11-16T11:40:18.655Z,86.20
2022-11-16T11:41:20.199Z,91.60
2022-11-16T11:42:22.979Z,85.82
2022-11-16T11:43:27.475Z,89.70
2022-11-16T11:45:05.798Z,84.95
2022-11-16T11:46:15.820Z,91.20
2022-11-16T11:48:03.192Z,91.95
2022-11-16T11:49:13.465Z,91.57
2022-11-16T11:50:25.303Z,93.57
2022-11-16T11:51:31.465Z,85.93
2022-11-16T11:52:39.258Z,93.30
2022-11-16T11:53:56.465Z,85.57
2022-11-16T11:54:58.102Z,88.65
2022-11-16T11:55:59.684Z,88.33
2022-11-16T11:57:01.287Z,90.85
2022-11-16T11:58:03.872Z,89.57
2022-11-16T11:59:05.563Z,91.97
2022-11-16T12:00:09.238Z,93.88
2022-11-16T12:01:32.631Z,89.13
2022-11-16T12:02:57.408Z,84.78
2022-11-16T12:03:59.055Z,87.80
2022-11-16T12:05:12.462Z,84.47
2022-11-16T12:06:22.571Z,85.47
2022-11-16T12:07:36.301Z,89.53
2022-11-16T12:09:10.057Z,87.60
2022-11-16T12:10:17.974Z,79.45
2022-11-16T12:11:42.037Z,82.80
2022-11-16T12:13:07.833Z,84.57
2022-11-16T12:14:34.352Z,80.35
2022-11-16T12:15:42.135Z,83.47
2022-11-16T12:17:40.629Z,71.88
2022-11-16T12:18:42.149Z,74.68
2022-11-16T12:20:17.602Z,75.78
2022-11-16T12:21:23.068Z,74.93
2022-11-16T12:22:48.884Z,77.35
2022-11-16T12:23:50.389Z,75.78
2022-11-16T12:25:20.775Z,74.70
2022-11-16T12:26:41.406Z,73.82
2022-11-16T12:27:56.391Z,73.97
2022-11-16T12:29:04.034Z,75.68
2022-11-16T12:30:13.916Z,78.05
2022-11-16T12:31:40.305Z,76.55
2022-11-16T12:32:53.105Z,76.22
2022-11-16T12:34:15.946Z,75.33
2022-11-16T12:35:23.472Z,72.63
2022-11-16T12:37:23.824Z,66.70
2022-11-16T12:38:40.792Z,74.47
2022-11-16T12:40:08.517Z,78.85
2022-11-16T12:41:25.350Z,72.38
2022-11-16T12:42:46.173Z,66.78
2022-11-16T12:43:47.699Z,69.68
2022-11-16T12:44:58.357Z,69.47
2022-11-16T12:46:24.483Z,65.83
2022-11-16T12:47:39.706Z,68.45
2022-11-16T12:49:25.170Z,67.13
2022-11-16T12:50:54.524Z,60.80
2022-11-16T12:52:29.511Z,65.20
2022-11-16T12:53:43.254Z,62.95
2022-11-16T12:55:24.097Z,62.33
2022-11-16T12:56:34.322Z,64.05
2022-11-16T12:57:44.703Z,61.67
2022-11-16T12:59:11.595Z,62.72
2022-11-16T13:00:17.590Z,64.43
2022-11-16T13:01:28.810Z,57.42
2022-11-16T13:02:45.141Z,57.67
2022-11-16T13:03:54.346Z,59.47
2022-11-16T13:05:05.669Z,54.78
2022-11-16T13:06:09.963Z,56.28
2022-11-16T13:07:17.370Z,56.13
2022-11-16T13:08:24.735Z,57.75
2022-11-16T13:09:30.950Z,52.92
2022-11-16T13:10:35.900Z,55.33
2022-11-16T13:11:39.807Z,58.83
2022-11-16T13:12:41.832Z,56.88
2022-11-16T13:13:48.083Z,54.17
2022-11-16T13:14:54.807Z,57.58
2022-11-16T13:15:58.248Z,59.38
2022-11-16T13:17:00.728Z,56.28
2022-11-16T13:18:03.318Z,63.15
2022-11-16T13:19:05.964Z,61.58
2022-11-16T13:20:18.763Z,59.97
2022-11-16T13:21:29.149Z,58.85
2022-11-16T13:22:30.698Z,58.57
2022-11-16T13:23:32.599Z,60.97
2022-11-16T13:24:51.122Z,55.08
2022-11-16T13:26:10.590Z,59.35
2022-11-16T13:27:12.111Z,59.65
2022-11-16T13:28:38.806Z,60.15
2022-11-16T13:29:49.678Z,53.78
2022-11-16T13:30:58.858Z,51.47
2022-11-16T13:32:10.941Z,55.53
2022-11-16T13:33:28.006Z,56.00
2022-11-16T13:34:32.298Z,57.37
2022-11-16T13:35:36.416Z,51.80
2022-11-16T13:36:45.373Z,51.55
2022-11-16T13:37:51.733Z,42.75
2022-11-16T13:38:53.650Z,45.65
2022-11-16T13:39:58.092Z,48.45
2022-11-16T13:41:31.507Z,46.38
2022-11-16T13:42:39.139Z,45.53
2022-11-16T13:43:47.489Z,43.60
2022-11-16T13:44:51.635Z,46.90
2022-11-16T13:45:54.870Z,47.07
2022-11-16T13:47:06.092Z,45.22
2022-11-16T13:48:25.507Z,44.88
2022-11-16T13:49:42.408Z,42.78
2022-11-16T13:50:49.252Z,43.33
2022-11-16T13:52:35.674Z,44.78
2022-11-16T13:55:01.690Z,42.78
2022-11-16T13:56:05.198Z,48.40
2022-11-16T13:57:20.720Z,42.53
2022-11-16T13:58:22.303Z,39.10